Fengtai, China
Current Conditions -  °F | °C
As of 8:30 PM on Monday 26 Jan 2015 (Local Time) from ZBAA Reporting Station
Clear Clear  
Wind Chill: 16°   Ceiling: Unl
Heat Index: 27°   Visibility: 6mi
Dew Point: -4°   Wind: 11mph
Humidity: 26%   Direction: 340°NNW
Pressure: 30.59"   Gusts: NA
Location:  39.9°N, 116.2°E
Report Text: ZBAA 261230Z 34005MPS CAVOK M03/M20 Q1036 NOSIG
Loading
Personal Weather Stations






























Interactive Weather Map New forecast layout! Learn more

10-Day Weather Forecast

Advertisements
Track Severe Weather on mobile